createdAt,value
2022-12-19T00:01:36.755Z,31.23
2022-12-19T00:04:08.802Z,31.10
2022-12-19T00:06:39.521Z,31.00
2022-12-19T00:09:11.659Z,31.13
2022-12-19T00:11:38.943Z,30.10
2022-12-19T00:14:06.654Z,29.20
2022-12-19T00:16:33.608Z,29.40
2022-12-19T00:19:01.524Z,32.43
2022-12-19T00:21:30.778Z,33.63
2022-12-19T00:24:03.267Z,31.77
2022-12-19T00:26:35.075Z,32.67
2022-12-19T00:29:09.838Z,33.47
2022-12-19T00:31:39.518Z,34.33
2022-12-19T00:34:06.864Z,32.70
2022-12-19T00:36:34.716Z,31.27
2022-12-19T00:39:07.785Z,31.23
2022-12-19T00:41:41.376Z,31.77
2022-12-19T00:44:12.779Z,30.77
2022-12-19T00:46:40.072Z,30.37
2022-12-19T00:49:07.292Z,28.80
2022-12-19T00:51:35.823Z,27.83
2022-12-19T00:54:06.726Z,28.43
2022-12-19T00:56:45.735Z,27.93
2022-12-19T00:59:12.764Z,29.07
2022-12-19T01:01:41.502Z,26.97
2022-12-19T01:04:30.359Z,26.00
2022-12-19T01:07:02.751Z,26.20
2022-12-19T01:09:34.852Z,24.40
2022-12-19T01:12:24.387Z,27.33
2022-12-19T01:14:54.481Z,27.10
2022-12-19T01:17:23.872Z,26.87
2022-12-19T01:19:53.174Z,25.60
2022-12-19T01:22:19.897Z,26.30
2022-12-19T01:24:46.946Z,26.87
2022-12-19T01:27:15.430Z,28.57
2022-12-19T01:29:52.276Z,25.40
2022-12-19T01:32:21.860Z,25.13
2022-12-19T01:34:49.577Z,27.17
2022-12-19T01:37:16.451Z,25.37
2022-12-19T01:39:43.527Z,25.33
2022-12-19T01:42:20.261Z,25.23
2022-12-19T01:45:12.144Z,23.93
2022-12-19T01:47:55.374Z,26.53
2022-12-19T01:50:34.958Z,28.40
2022-12-19T01:53:03.310Z,29.23
2022-12-19T01:55:30.942Z,26.73
2022-12-19T01:57:59.883Z,26.70
2022-12-19T02:00:27.075Z,27.90
2022-12-19T02:03:09.478Z,29.23
2022-12-19T02:05:43.946Z,27.70
2022-12-19T02:08:11.117Z,29.27
2022-12-19T02:10:38.346Z,28.60
2022-12-19T02:13:06.371Z,30.20
2022-12-19T02:15:43.645Z,27.57
2022-12-19T02:18:22.602Z,27.63
2022-12-19T02:21:12.677Z,27.23
2022-12-19T02:24:27.300Z,29.37
2022-12-19T02:27:11.129Z,28.67
2022-12-19T02:30:04.562Z,28.13
2022-12-19T02:32:45.877Z,28.43
2022-12-19T02:35:19.615Z,28.50
2022-12-19T02:38:19.765Z,26.57
2022-12-19T02:40:58.493Z,29.17
2022-12-19T02:43:30.735Z,26.13
2022-12-19T02:45:59.664Z,27.53
2022-12-19T02:48:27.790Z,28.53
2022-12-19T02:50:54.836Z,27.77
2022-12-19T02:53:23.599Z,28.00
2022-12-19T02:56:21.036Z,26.37
2022-12-19T02:59:18.369Z,26.80
2022-12-19T03:02:05.603Z,27.03
2022-12-19T03:04:46.610Z,28.13
2022-12-19T03:07:39.553Z,25.50
2022-12-19T03:10:24.577Z,28.17
2022-12-19T03:13:01.389Z,24.80
2022-12-19T03:15:29.123Z,26.97
2022-12-19T03:17:59.352Z,26.73
2022-12-19T03:20:39.626Z,28.27
2022-12-19T03:23:06.676Z,26.20
2022-12-19T03:25:35.693Z,25.40
2022-12-19T03:28:08.330Z,26.13
2022-12-19T03:30:36.325Z,25.83
2022-12-19T03:33:03.922Z,25.57
2022-12-19T03:35:34.137Z,27.73
2022-12-19T03:38:03.738Z,25.93
2022-12-19T03:40:33.501Z,26.63
2022-12-19T03:43:11.987Z,26.00
2022-12-19T03:45:57.682Z,27.27
2022-12-19T03:48:43.029Z,27.63
2022-12-19T03:51:30.578Z,26.47
2022-12-19T03:54:09.884Z,24.10
2022-12-19T03:56:46.754Z,25.43
2022-12-19T03:59:26.359Z,26.37
2022-12-19T04:01:54.741Z,25.30
2022-12-19T04:04:24.597Z,25.00
2022-12-19T04:06:53.732Z,26.30
2022-12-19T04:09:23.704Z,27.63
2022-12-19T04:11:57.200Z,26.73
2022-12-19T04:14:31.912Z,28.57
2022-12-19T04:17:10.995Z,28.50
2022-12-19T04:19:51.097Z,27.90
2022-12-19T04:22:26.761Z,27.67
2022-12-19T04:24:54.797Z,26.50
2022-12-19T04:27:22.674Z,26.37
2022-12-19T04:29:55.256Z,25.73
2022-12-19T04:32:24.884Z,27.57
2022-12-19T04:34:51.648Z,27.80
2022-12-19T04:37:18.907Z,27.33
2022-12-19T04:39:45.823Z,29.80
2022-12-19T04:42:12.898Z,27.37
2022-12-19T04:44:39.629Z,27.73
2022-12-19T04:47:06.792Z,26.23
2022-12-19T04:49:33.534Z,26.03
2022-12-19T04:52:00.598Z,26.97
2022-12-19T04:54:27.333Z,26.50
2022-12-19T04:56:54.617Z,24.63
2022-12-19T04:59:21.385Z,25.97
2022-12-19T05:01:48.442Z,26.37
2022-12-19T05:04:15.368Z,23.77
2022-12-19T05:06:42.374Z,26.17
2022-12-19T05:09:10.857Z,25.33
2022-12-19T05:11:37.989Z,25.93
2022-12-19T05:14:04.729Z,24.67
2022-12-19T05:16:31.853Z,25.40
2022-12-19T05:18:59.656Z,24.73
2022-12-19T05:21:27.000Z,24.90
2022-12-19T05:23:53.913Z,23.13
2022-12-19T05:26:20.963Z,22.67
2022-12-19T05:28:48.847Z,23.70
2022-12-19T05:31:22.520Z,22.83
2022-12-19T05:33:49.623Z,23.63
2022-12-19T05:36:17.960Z,22.33
2022-12-19T05:38:44.769Z,23.13
2022-12-19T05:41:18.459Z,23.17
2022-12-19T05:43:46.792Z,23.53
2022-12-19T05:46:13.799Z,22.73
2022-12-19T05:48:40.613Z,22.43
2022-12-19T05:51:08.544Z,22.00
2022-12-19T05:53:36.500Z,22.63
2022-12-19T05:56:08.976Z,20.43
2022-12-19T05:58:36.951Z,20.60
2022-12-19T06:01:26.081Z,21.53
2022-12-19T06:03:54.328Z,21.33
2022-12-19T06:06:24.068Z,22.70
2022-12-19T06:08:55.445Z,19.97
2022-12-19T06:11:23.546Z,20.37
2022-12-19T06:13:50.849Z,21.10
2022-12-19T06:16:21.050Z,20.47
2022-12-19T06:18:47.989Z,21.37
2022-12-19T06:21:17.918Z,19.07
2022-12-19T06:23:45.273Z,20.53
2022-12-19T06:26:19.141Z,20.17
2022-12-19T06:28:54.916Z,21.37
2022-12-19T06:31:23.650Z,21.93
2022-12-19T06:33:52.448Z,20.90
2022-12-19T06:36:25.534Z,22.53
2022-12-19T06:38:53.521Z,22.13
2022-12-19T06:41:40.222Z,20.33
2022-12-19T06:44:10.513Z,19.63
2022-12-19T06:46:39.225Z,21.70
2022-12-19T06:49:06.490Z,20.97
2022-12-19T06:51:34.062Z,20.00
2022-12-19T06:54:00.912Z,21.30
2022-12-19T06:56:28.188Z,19.17
2022-12-19T06:58:55.085Z,21.67
2022-12-19T07:01:52.443Z,20.10
2022-12-19T07:04:29.253Z,19.97
2022-12-19T07:06:57.026Z,19.60
2022-12-19T07:09:23.793Z,20.20
2022-12-19T07:11:50.875Z,21.40
2022-12-19T07:14:17.605Z,19.73
2022-12-19T07:16:45.613Z,20.97
2022-12-19T07:19:12.589Z,23.13
2022-12-19T07:21:40.321Z,21.37
2022-12-19T07:24:07.944Z,21.07
2022-12-19T07:26:36.135Z,21.03
2022-12-19T07:29:03.554Z,21.30
2022-12-19T07:31:30.705Z,19.63
2022-12-19T07:33:58.010Z,20.80
2022-12-19T07:36:25.303Z,22.53
2022-12-19T07:38:52.216Z,21.17
2022-12-19T07:41:19.222Z,20.57
2022-12-19T07:43:45.972Z,20.77
2022-12-19T07:46:13.373Z,21.70
2022-12-19T07:48:40.222Z,21.10
2022-12-19T07:51:07.277Z,21.87
2022-12-19T07:53:34.048Z,21.53
2022-12-19T07:56:01.107Z,19.07
2022-12-19T07:58:27.950Z,20.13
2022-12-19T08:00:56.877Z,21.17
2022-12-19T08:03:24.741Z,20.10
2022-12-19T08:05:52.136Z,19.17
2022-12-19T08:08:18.953Z,18.03
2022-12-19T08:10:45.946Z,19.40
2022-12-19T08:13:12.814Z,19.70
2022-12-19T08:15:39.818Z,22.43
2022-12-19T08:18:06.631Z,20.00
2022-12-19T08:20:33.686Z,20.20
2022-12-19T08:23:00.420Z,19.50
2022-12-19T08:25:27.498Z,19.60
2022-12-19T08:27:54.232Z,20.00
2022-12-19T08:30:21.226Z,19.90
2022-12-19T08:32:48.431Z,18.77
2022-12-19T08:35:15.650Z,21.40
2022-12-19T08:37:42.431Z,20.47
2022-12-19T08:40:10.046Z,20.53
2022-12-19T08:42:37.345Z,19.57
2022-12-19T08:45:04.835Z,19.93
2022-12-19T08:47:31.568Z,18.97
2022-12-19T08:49:58.607Z,20.10
2022-12-19T08:52:25.375Z,22.03
2022-12-19T08:54:52.375Z,21.30
2022-12-19T08:57:19.170Z,20.43
2022-12-19T08:59:46.235Z,20.53
2022-12-19T09:02:16.132Z,21.67
2022-12-19T09:05:58.726Z,20.13
2022-12-19T09:07:30.991Z,20.77
2022-12-19T09:10:00.819Z,21.33
2022-12-19T09:12:27.731Z,21.17
2022-12-19T09:14:54.960Z,20.53
2022-12-19T09:17:21.865Z,20.27
2022-12-19T09:19:49.100Z,20.00
2022-12-19T09:22:16.551Z,20.50
2022-12-19T09:24:43.645Z,20.13
2022-12-19T09:27:10.561Z,20.10
2022-12-19T09:29:37.650Z,21.47
2022-12-19T09:32:04.706Z,19.60
2022-12-19T09:34:37.102Z,20.83
2022-12-19T09:37:17.241Z,20.80
2022-12-19T09:39:46.823Z,19.97
2022-12-19T09:42:40.548Z,20.77
2022-12-19T09:45:31.567Z,21.87
2022-12-19T09:48:00.585Z,21.80
2022-12-19T09:50:33.872Z,20.93
2022-12-19T09:53:08.072Z,22.03
2022-12-19T09:55:38.502Z,20.60
2022-12-19T09:58:39.169Z,22.87
2022-12-19T10:01:17.356Z,20.80
2022-12-19T10:04:05.320Z,21.87
2022-12-19T10:07:16.255Z,23.87
2022-12-19T10:10:17.799Z,21.80
2022-12-19T10:12:42.502Z,20.73
2022-12-19T10:15:29.497Z,20.93
2022-12-19T10:18:01.758Z,20.97
2022-12-19T10:20:34.120Z,22.27
2022-12-19T10:23:29.218Z,20.73
2022-12-19T10:26:12.082Z,21.57
2022-12-19T10:28:51.267Z,22.00
2022-12-19T10:31:23.865Z,22.23
2022-12-19T10:34:01.511Z,22.40
2022-12-19T10:37:04.436Z,21.70
2022-12-19T10:39:34.406Z,22.17
2022-12-19T10:42:15.838Z,22.67
2022-12-19T10:44:46.135Z,22.93
2022-12-19T10:47:16.131Z,24.93
2022-12-19T10:49:43.620Z,21.67
2022-12-19T10:52:12.698Z,20.07
2022-12-19T10:54:43.933Z,23.43
2022-12-19T10:57:22.856Z,22.83
2022-12-19T11:00:00.284Z,22.30
2022-12-19T11:02:38.633Z,23.43
2022-12-19T11:05:19.761Z,23.93
2022-12-19T11:08:20.865Z,24.63
2022-12-19T11:12:27.767Z,22.03
2022-12-19T11:18:41.521Z,22.83
2022-12-19T11:21:28.325Z,21.87
2022-12-19T11:27:59.906Z,22.37
2022-12-19T11:29:41.075Z,22.80
2022-12-19T11:30:35.950Z,23.87
2022-12-19T11:30:37.768Z,22.03
2022-12-19T11:34:07.368Z,23.63
2022-12-19T11:37:01.584Z,24.00
2022-12-19T11:39:58.303Z,23.80
2022-12-19T11:42:25.068Z,22.37
2022-12-19T11:45:30.879Z,23.27
2022-12-19T11:48:14.130Z,22.10
2022-12-19T11:50:56.668Z,21.97
2022-12-19T11:53:30.472Z,23.93
2022-12-19T11:56:05.356Z,24.10
2022-12-19T11:58:59.580Z,23.67
2022-12-19T12:01:52.396Z,23.77
2022-12-19T12:04:37.438Z,23.90
2022-12-19T12:07:20.470Z,23.87
2022-12-19T12:12:36.846Z,23.87
2022-12-19T12:24:05.063Z,25.40
2022-12-19T12:31:00.804Z,23.80
2022-12-19T12:31:04.788Z,24.47
2022-12-19T12:31:15.526Z,23.43
2022-12-19T12:31:43.768Z,25.77
2022-12-19T12:31:58.648Z,24.03
2022-12-19T12:35:41.444Z,23.43
2022-12-19T12:35:46.391Z,22.50
2022-12-19T12:40:42.646Z,24.13
2022-12-19T12:43:18.725Z,25.00
2022-12-19T12:45:46.087Z,23.10
2022-12-19T12:48:36.513Z,23.80
2022-12-19T12:51:04.330Z,25.33
2022-12-19T12:53:39.563Z,25.67
2022-12-19T12:56:09.786Z,24.70
2022-12-19T12:58:49.058Z,24.77
2022-12-19T13:01:35.417Z,24.83
2022-12-19T13:04:07.839Z,25.87
2022-12-19T13:06:50.128Z,25.27
2022-12-19T13:09:24.171Z,24.40
2022-12-19T13:12:13.956Z,25.73
2022-12-19T13:14:45.396Z,25.43
2022-12-19T13:17:32.362Z,24.80
2022-12-19T13:20:05.516Z,26.17
2022-12-19T13:22:32.376Z,24.97
2022-12-19T13:25:00.543Z,25.80
2022-12-19T13:27:34.397Z,25.97
2022-12-19T13:30:01.801Z,24.30
2022-12-19T13:32:40.585Z,25.00
2022-12-19T13:35:59.817Z,23.87
2022-12-19T13:40:01.049Z,24.73
2022-12-19T13:41:25.720Z,25.30
2022-12-19T13:43:59.816Z,24.13
2022-12-19T13:46:42.520Z,24.77
2022-12-19T13:49:22.075Z,25.47
2022-12-19T13:51:57.389Z,25.30
2022-12-19T13:54:24.507Z,25.13
2022-12-19T13:56:53.402Z,23.97
2022-12-19T13:59:23.351Z,22.73
2022-12-19T14:01:53.278Z,23.57
2022-12-19T14:04:32.701Z,25.03
2022-12-19T14:07:03.670Z,24.50
2022-12-19T14:11:37.110Z,24.67
2022-12-19T14:13:44.934Z,23.73
2022-12-19T14:15:44.089Z,26.10
2022-12-19T14:18:43.572Z,23.87
2022-12-19T14:22:09.947Z,24.43
2022-12-19T14:24:15.016Z,23.13
2022-12-19T14:28:28.323Z,24.37
2022-12-19T14:30:26.634Z,25.30
2022-12-19T14:33:53.482Z,24.03
2022-12-19T14:36:11.468Z,25.13
2022-12-19T14:39:19.987Z,24.17
2022-12-19T14:42:02.829Z,23.63
2022-12-19T14:52:34.940Z,24.13
2022-12-19T14:52:51.828Z,23.17
2022-12-19T14:54:14.804Z,24.70
2022-12-19T14:54:43.935Z,30.95
2022-12-19T14:59:03.691Z,25.27
2022-12-19T15:01:34.980Z,26.63
2022-12-19T15:04:52.466Z,25.33
2022-12-19T15:07:12.136Z,26.03
2022-12-19T15:11:06.714Z,26.70
2022-12-19T15:14:56.266Z,24.20
2022-12-19T15:16:01.104Z,25.73
2022-12-19T15:18:37.170Z,26.17
2022-12-19T15:21:08.219Z,27.27
2022-12-19T15:23:35.502Z,26.13
2022-12-19T15:26:11.858Z,27.23
2022-12-19T15:28:50.924Z,26.00
2022-12-19T15:31:38.711Z,27.13
2022-12-19T15:34:44.796Z,25.70
2022-12-19T15:37:13.899Z,28.40
2022-12-19T15:39:41.552Z,26.50
2022-12-19T15:42:20.175Z,26.10
2022-12-19T15:44:48.385Z,28.50
2022-12-19T15:47:28.595Z,27.63
2022-12-19T15:49:55.655Z,27.60
2022-12-19T15:52:23.984Z,27.17
2022-12-19T15:54:51.523Z,27.60
2022-12-19T15:57:24.765Z,26.97
2022-12-19T15:59:52.063Z,26.23
2022-12-19T16:02:24.143Z,25.50
2022-12-19T16:04:55.508Z,27.63
2022-12-19T16:07:26.927Z,27.63
2022-12-19T16:09:54.787Z,25.33
2022-12-19T16:12:27.477Z,25.93
2022-12-19T16:14:59.629Z,28.77
2022-12-19T16:17:29.241Z,28.00
2022-12-19T16:19:56.041Z,27.00
2022-12-19T16:22:28.598Z,28.47
2022-12-19T16:24:55.852Z,25.83
2022-12-19T16:27:28.906Z,30.20
2022-12-19T16:29:58.351Z,30.53
2022-12-19T16:32:25.619Z,28.37
2022-12-19T16:34:53.634Z,26.97
2022-12-19T16:37:20.634Z,27.53
2022-12-19T16:39:47.457Z,28.53
2022-12-19T16:42:18.435Z,26.87
2022-12-19T16:44:47.164Z,28.70
2022-12-19T16:47:17.241Z,28.77
2022-12-19T16:49:45.299Z,27.80
2022-12-19T16:52:12.587Z,28.77
2022-12-19T16:54:39.576Z,29.17
2022-12-19T16:57:15.905Z,29.40
2022-12-19T16:59:42.678Z,28.87
2022-12-19T17:02:41.340Z,28.73
2022-12-19T17:05:15.764Z,28.83
2022-12-19T17:07:42.980Z,28.93
2022-12-19T17:10:10.212Z,29.53
2022-12-19T17:12:39.638Z,31.70
2022-12-19T17:15:13.957Z,29.67
2022-12-19T17:17:40.990Z,29.67
2022-12-19T17:20:15.315Z,30.20
2022-12-19T17:22:42.360Z,30.87
2022-12-19T17:25:18.872Z,32.23
2022-12-19T17:27:46.653Z,31.47
2022-12-19T17:30:13.999Z,31.07
2022-12-19T17:32:42.249Z,31.27
2022-12-19T17:35:21.305Z,30.53
2022-12-19T17:37:55.388Z,32.27
2022-12-19T17:40:26.337Z,31.13
2022-12-19T17:42:54.505Z,31.30
2022-12-19T17:45:23.678Z,31.07
2022-12-19T17:47:55.577Z,32.53
2022-12-19T17:50:27.948Z,30.47
2022-12-19T17:52:56.675Z,32.40
2022-12-19T17:55:26.753Z,33.77
2022-12-19T17:57:54.814Z,31.20
2022-12-19T18:00:30.134Z,32.90
2022-12-19T18:03:01.283Z,33.27
2022-12-19T18:05:33.631Z,33.87
2022-12-19T18:08:00.623Z,33.30
2022-12-19T18:10:29.833Z,36.10
2022-12-19T18:12:58.108Z,32.73
2022-12-19T18:15:25.505Z,34.70
2022-12-19T18:17:53.955Z,35.53
2022-12-19T18:20:31.780Z,33.93
2022-12-19T18:23:00.133Z,35.33
2022-12-19T18:25:31.027Z,34.40
2022-12-19T18:27:58.731Z,37.80
2022-12-19T18:30:25.905Z,43.57
2022-12-19T18:32:57.505Z,40.60
2022-12-19T18:35:38.231Z,39.70
2022-12-19T18:38:11.511Z,41.30
2022-12-19T18:40:38.668Z,40.63
2022-12-19T18:43:06.341Z,40.40
2022-12-19T18:45:41.931Z,38.83
2022-12-19T18:48:32.344Z,37.73
2022-12-19T18:51:00.838Z,33.63
2022-12-19T18:53:36.184Z,44.77
2022-12-19T18:56:06.009Z,33.00
2022-12-19T18:58:33.709Z,38.03
2022-12-19T19:01:01.995Z,38.30
2022-12-19T19:03:32.388Z,36.67
2022-12-19T19:06:00.305Z,39.13
2022-12-19T19:08:33.059Z,36.87
2022-12-19T19:11:15.253Z,33.47
2022-12-19T19:13:42.422Z,34.90
2022-12-19T19:16:18.236Z,35.20
2022-12-19T19:18:48.681Z,34.80
2022-12-19T19:21:16.451Z,35.07
2022-12-19T19:23:49.003Z,36.20
2022-12-19T19:26:15.911Z,34.60
2022-12-19T19:28:47.056Z,36.57
2022-12-19T19:31:21.348Z,38.03
2022-12-19T19:33:58.867Z,43.47
2022-12-19T19:36:29.307Z,39.80
2022-12-19T19:38:57.662Z,41.63
2022-12-19T19:41:29.672Z,41.80
2022-12-19T19:43:58.804Z,40.40
2022-12-19T19:46:29.293Z,42.73
2022-12-19T19:48:57.178Z,40.87
2022-12-19T19:51:24.164Z,43.93
2022-12-19T19:53:51.165Z,43.27
2022-12-19T19:56:17.940Z,43.37
2022-12-19T19:58:44.935Z,43.43
2022-12-19T20:01:13.344Z,45.00
2022-12-19T20:03:41.981Z,44.47
2022-12-19T20:06:10.296Z,41.53
2022-12-19T20:08:40.163Z,45.10
2022-12-19T20:11:08.651Z,44.87
2022-12-19T20:13:35.982Z,42.13
2022-12-19T20:16:08.979Z,40.77
2022-12-19T20:18:37.601Z,45.13
2022-12-19T20:21:12.752Z,44.23
2022-12-19T20:23:43.139Z,41.70
2022-12-19T20:26:11.727Z,43.43
2022-12-19T20:28:45.976Z,43.40
2022-12-19T20:31:16.385Z,44.67
2022-12-19T20:33:43.482Z,54.93
2022-12-19T20:36:12.399Z,46.20
2022-12-19T20:38:39.669Z,41.53
2022-12-19T20:41:06.772Z,44.47
2022-12-19T20:43:34.385Z,41.53
2022-12-19T20:46:06.787Z,46.73
2022-12-19T20:48:33.890Z,46.47
2022-12-19T20:51:04.493Z,49.37
2022-12-19T20:53:33.919Z,47.53
2022-12-19T20:56:01.852Z,42.87
2022-12-19T20:58:30.725Z,44.73
2022-12-19T21:01:06.476Z,42.97
2022-12-19T21:03:34.653Z,42.60
2022-12-19T21:06:01.769Z,45.60
2022-12-19T21:08:29.245Z,41.70
2022-12-19T21:10:56.669Z,45.73
2022-12-19T21:13:23.954Z,45.57
2022-12-19T21:15:58.768Z,45.83
2022-12-19T21:18:26.878Z,45.10
2022-12-19T21:20:54.318Z,45.93
2022-12-19T21:23:23.453Z,40.50
2022-12-19T21:25:50.398Z,44.73
2022-12-19T21:28:17.563Z,46.37
2022-12-19T21:30:44.601Z,39.77
2022-12-19T21:33:11.648Z,43.97
2022-12-19T21:35:39.003Z,44.13
2022-12-19T21:38:06.011Z,43.53
2022-12-19T21:40:32.720Z,42.17
2022-12-19T21:42:59.688Z,41.07
2022-12-19T21:45:26.439Z,40.67
2022-12-19T21:47:53.516Z,41.87
2022-12-19T21:50:20.248Z,41.07
2022-12-19T21:52:50.169Z,41.67
2022-12-19T21:55:21.067Z,40.70
2022-12-19T21:57:48.048Z,41.00
2022-12-19T22:00:15.287Z,39.00
2022-12-19T22:03:01.573Z,41.23
2022-12-19T22:05:29.024Z,39.47
2022-12-19T22:07:56.018Z,41.20
2022-12-19T22:10:22.816Z,42.33
2022-12-19T22:12:49.788Z,40.70
2022-12-19T22:15:16.588Z,39.57
2022-12-19T22:17:43.895Z,40.77
2022-12-19T22:20:10.685Z,41.40
2022-12-19T22:22:37.758Z,38.90
2022-12-19T22:25:04.976Z,41.63
2022-12-19T22:27:32.086Z,39.00
2022-12-19T22:30:00.251Z,37.87
2022-12-19T22:32:31.089Z,39.00
2022-12-19T22:34:57.785Z,39.70
2022-12-19T22:37:25.282Z,41.03
2022-12-19T22:39:52.111Z,40.20
2022-12-19T22:42:19.191Z,39.53
2022-12-19T22:44:45.886Z,40.37
2022-12-19T22:47:12.931Z,39.73
2022-12-19T22:49:39.665Z,39.37
2022-12-19T22:52:06.743Z,39.00
2022-12-19T22:54:33.473Z,38.43
2022-12-19T22:57:00.524Z,39.93
2022-12-19T22:59:27.237Z,37.47
2022-12-19T23:01:54.418Z,38.33
2022-12-19T23:04:21.389Z,39.47
2022-12-19T23:06:48.554Z,49.78
2022-12-19T23:09:17.447Z,41.10
2022-12-19T23:11:47.489Z,38.60
2022-12-19T23:14:16.507Z,38.60
2022-12-19T23:16:44.258Z,39.10
2022-12-19T23:19:11.603Z,38.13
2022-12-19T23:21:38.882Z,38.37
2022-12-19T23:24:06.030Z,38.83
2022-12-19T23:26:38.152Z,38.30
2022-12-19T23:29:10.377Z,40.30
2022-12-19T23:31:40.516Z,38.07
2022-12-19T23:34:07.760Z,38.77
2022-12-19T23:39:21.635Z,38.33
2022-12-19T23:41:48.690Z,36.33
2022-12-19T23:44:15.518Z,38.53
2022-12-19T23:46:42.600Z,36.97
2022-12-19T23:49:09.408Z,37.30
2022-12-19T23:51:36.717Z,37.57
2022-12-19T23:54:03.663Z,35.63
2022-12-19T23:56:32.481Z,38.03
2022-12-19T23:58:59.630Z,35.77
